sensor_id;sensor_type;location;lat;lon;timestamp;P1;durP1;ratioP1;P2;durP2;ratioP2
29788;SDS011;64899;42.660;23.268;2024-03-08T00:01:47;9.38;;;6.03;;
29788;SDS011;64899;42.660;23.268;2024-03-08T00:04:12;9.07;;;5.53;;
29788;SDS011;64899;42.660;23.268;2024-03-08T00:06:38;7.95;;;5.30;;
29788;SDS011;64899;42.660;23.268;2024-03-08T00:09:04;7.05;;;5.28;;
29788;SDS011;64899;42.660;23.268;2024-03-08T00:11:32;7.30;;;5.05;;
29788;SDS011;64899;42.660;23.268;2024-03-08T00:13:58;5.82;;;3.97;;
29788;SDS011;64899;42.660;23.268;2024-03-08T00:16:24;5.43;;;4.13;;
29788;SDS011;64899;42.660;23.268;2024-03-08T00:18:49;5.47;;;4.07;;
29788;SDS011;64899;42.660;23.268;2024-03-08T00:21:14;7.80;;;4.70;;
29788;SDS011;64899;42.660;23.268;2024-03-08T00:23:40;5.43;;;3.97;;
29788;SDS011;64899;42.660;23.268;2024-03-08T00:26:06;5.75;;;4.07;;
29788;SDS011;64899;42.660;23.268;2024-03-08T00:28:31;5.53;;;4.00;;
29788;SDS011;64899;42.660;23.268;2024-03-08T00:30:57;7.32;;;4.50;;
29788;SDS011;64899;42.660;23.268;2024-03-08T00:33:22;6.78;;;4.25;;
29788;SDS011;64899;42.660;23.268;2024-03-08T00:35:47;5.95;;;4.30;;
29788;SDS011;64899;42.660;23.268;2024-03-08T00:38:13;7.45;;;4.38;;
29788;SDS011;64899;42.660;23.268;2024-03-08T00:40:38;6.57;;;3.83;;
29788;SDS011;64899;42.660;23.268;2024-03-08T00:43:05;7.32;;;4.25;;
29788;SDS011;64899;42.660;23.268;2024-03-08T00:45:31;8.02;;;4.60;;
29788;SDS011;64899;42.660;23.268;2024-03-08T00:47:56;5.70;;;4.10;;
29788;SDS011;64899;42.660;23.268;2024-03-08T00:50:21;6.70;;;4.82;;
29788;SDS011;64899;42.660;23.268;2024-03-08T00:52:47;5.88;;;3.75;;
29788;SDS011;64899;42.660;23.268;2024-03-08T00:55:12;4.97;;;3.13;;
29788;SDS011;64899;42.660;23.268;2024-03-08T00:57:38;3.58;;;2.72;;
29788;SDS011;64899;42.660;23.268;2024-03-08T01:00:04;2.75;;;2.33;;
29788;SDS011;64899;42.660;23.268;2024-03-08T01:02:34;3.22;;;2.30;;
29788;SDS011;64899;42.660;23.268;2024-03-08T01:05:00;3.72;;;2.40;;
29788;SDS011;64899;42.660;23.268;2024-03-08T01:07:26;2.40;;;2.10;;
29788;SDS011;64899;42.660;23.268;2024-03-08T01:09:52;3.83;;;2.47;;
29788;SDS011;64899;42.660;23.268;2024-03-08T01:12:17;3.25;;;2.40;;
29788;SDS011;64899;42.660;23.268;2024-03-08T01:14:42;3.90;;;2.38;;
29788;SDS011;64899;42.660;23.268;2024-03-08T01:17:08;3.47;;;2.65;;
29788;SDS011;64899;42.660;23.268;2024-03-08T01:19:34;3.35;;;2.63;;
29788;SDS011;64899;42.660;23.268;2024-03-08T01:22:00;4.45;;;2.90;;
29788;SDS011;64899;42.660;23.268;2024-03-08T01:24:25;3.63;;;3.00;;
29788;SDS011;64899;42.660;23.268;2024-03-08T01:26:51;4.32;;;2.72;;
29788;SDS011;64899;42.660;23.268;2024-03-08T01:29:16;3.15;;;2.42;;
29788;SDS011;64899;42.660;23.268;2024-03-08T01:31:42;4.00;;;2.53;;
29788;SDS011;64899;42.660;23.268;2024-03-08T01:34:07;4.43;;;2.60;;
29788;SDS011;64899;42.660;23.268;2024-03-08T01:36:33;5.57;;;2.60;;
29788;SDS011;64899;42.660;23.268;2024-03-08T01:38:58;3.28;;;2.28;;
29788;SDS011;64899;42.660;23.268;2024-03-08T01:41:23;3.80;;;2.55;;
29788;SDS011;64899;42.660;23.268;2024-03-08T01:43:49;3.13;;;2.70;;
29788;SDS011;64899;42.660;23.268;2024-03-08T01:46:17;3.92;;;2.50;;
29788;SDS011;64899;42.660;23.268;2024-03-08T01:48:44;5.65;;;2.85;;
29788;SDS011;64899;42.660;23.268;2024-03-08T01:51:10;2.60;;;2.40;;
29788;SDS011;64899;42.660;23.268;2024-03-08T01:53:37;3.58;;;2.53;;
29788;SDS011;64899;42.660;23.268;2024-03-08T01:56:02;2.63;;;2.10;;
29788;SDS011;64899;42.660;23.268;2024-03-08T01:58:31;2.47;;;2.13;;
29788;SDS011;64899;42.660;23.268;2024-03-08T02:00:58;4.13;;;2.30;;
29788;SDS011;64899;42.660;23.268;2024-03-08T02:03:23;3.03;;;2.40;;
29788;SDS011;64899;42.660;23.268;2024-03-08T02:05:49;3.03;;;2.20;;
29788;SDS011;64899;42.660;23.268;2024-03-08T02:08:14;2.25;;;2.05;;
29788;SDS011;64899;42.660;23.268;2024-03-08T02:10:46;4.07;;;2.17;;
29788;SDS011;64899;42.660;23.268;2024-03-08T02:13:12;2.08;;;1.88;;
29788;SDS011;64899;42.660;23.268;2024-03-08T02:18:19;2.80;;;2.22;;
29788;SDS011;64899;42.660;23.268;2024-03-08T02:20:49;3.08;;;2.55;;
29788;SDS011;64899;42.660;23.268;2024-03-08T02:23:15;2.95;;;2.38;;
29788;SDS011;64899;42.660;23.268;2024-03-08T02:25:40;3.53;;;2.90;;
29788;SDS011;64899;42.660;23.268;2024-03-08T02:28:08;3.05;;;2.70;;
29788;SDS011;64899;42.660;23.268;2024-03-08T02:30:34;2.58;;;2.28;;
29788;SDS011;64899;42.660;23.268;2024-03-08T02:33:00;3.72;;;2.67;;
29788;SDS011;64899;42.660;23.268;2024-03-08T02:35:26;3.42;;;2.90;;
29788;SDS011;64899;42.660;23.268;2024-03-08T02:37:51;3.88;;;2.92;;
29788;SDS011;64899;42.660;23.268;2024-03-08T02:40:17;3.50;;;2.80;;
29788;SDS011;64899;42.660;23.268;2024-03-08T02:42:42;3.60;;;2.88;;
29788;SDS011;64899;42.660;23.268;2024-03-08T02:45:08;3.28;;;2.95;;
29788;SDS011;64899;42.660;23.268;2024-03-08T02:47:35;4.07;;;3.33;;
29788;SDS011;64899;42.660;23.268;2024-03-08T02:50:00;5.28;;;3.35;;
29788;SDS011;64899;42.660;23.268;2024-03-08T02:52:26;4.43;;;3.25;;
29788;SDS011;64899;42.660;23.268;2024-03-08T02:54:52;4.28;;;3.20;;
29788;SDS011;64899;42.660;23.268;2024-03-08T02:57:17;3.65;;;2.85;;
29788;SDS011;64899;42.660;23.268;2024-03-08T02:59:43;2.35;;;2.10;;
29788;SDS011;64899;42.660;23.268;2024-03-08T03:02:08;2.33;;;1.98;;
29788;SDS011;64899;42.660;23.268;2024-03-08T03:04:35;4.13;;;1.60;;
29788;SDS011;64899;42.660;23.268;2024-03-08T03:07:00;2.75;;;2.10;;
29788;SDS011;64899;42.660;23.268;2024-03-08T03:09:26;4.43;;;2.60;;
29788;SDS011;64899;42.660;23.268;2024-03-08T03:11:55;3.78;;;2.90;;
29788;SDS011;64899;42.660;23.268;2024-03-08T03:14:21;4.50;;;2.40;;
29788;SDS011;64899;42.660;23.268;2024-03-08T03:16:47;4.30;;;2.70;;
29788;SDS011;64899;42.660;23.268;2024-03-08T03:19:12;4.85;;;3.03;;
29788;SDS011;64899;42.660;23.268;2024-03-08T03:21:37;2.88;;;2.58;;
29788;SDS011;64899;42.660;23.268;2024-03-08T03:24:03;3.20;;;2.58;;
29788;SDS011;64899;42.660;23.268;2024-03-08T03:26:34;3.40;;;2.45;;
29788;SDS011;64899;42.660;23.268;2024-03-08T03:29:02;2.78;;;2.53;;
29788;SDS011;64899;42.660;23.268;2024-03-08T03:31:28;3.40;;;2.42;;
29788;SDS011;64899;42.660;23.268;2024-03-08T03:33:53;3.15;;;2.60;;
29788;SDS011;64899;42.660;23.268;2024-03-08T03:36:19;4.22;;;2.50;;
29788;SDS011;64899;42.660;23.268;2024-03-08T03:38:45;9.50;;;2.25;;
29788;SDS011;64899;42.660;23.268;2024-03-08T03:41:10;2.40;;;2.05;;
29788;SDS011;64899;42.660;23.268;2024-03-08T03:43:36;2.13;;;1.90;;
29788;SDS011;64899;42.660;23.268;2024-03-08T03:46:05;1.40;;;1.30;;
29788;SDS011;64899;42.660;23.268;2024-03-08T03:48:35;1.58;;;1.40;;
29788;SDS011;64899;42.660;23.268;2024-03-08T03:51:01;2.38;;;1.55;;
29788;SDS011;64899;42.660;23.268;2024-03-08T03:53:26;3.13;;;1.75;;
29788;SDS011;64899;42.660;23.268;2024-03-08T03:55:52;1.48;;;1.38;;
29788;SDS011;64899;42.660;23.268;2024-03-08T03:58:17;1.75;;;1.42;;
29788;SDS011;64899;42.660;23.268;2024-03-08T04:00:47;1.50;;;1.10;;
29788;SDS011;64899;42.660;23.268;2024-03-08T04:03:13;1.50;;;1.40;;
29788;SDS011;64899;42.660;23.268;2024-03-08T04:05:39;2.03;;;1.48;;
29788;SDS011;64899;42.660;23.268;2024-03-08T04:08:04;1.85;;;1.42;;
29788;SDS011;64899;42.660;23.268;2024-03-08T04:10:31;1.55;;;1.40;;
29788;SDS011;64899;42.660;23.268;2024-03-08T04:12:56;1.63;;;1.27;;
29788;SDS011;64899;42.660;23.268;2024-03-08T04:15:22;4.53;;;1.60;;
29788;SDS011;64899;42.660;23.268;2024-03-08T04:17:48;1.52;;;1.42;;
29788;SDS011;64899;42.660;23.268;2024-03-08T04:20:13;1.65;;;1.55;;
29788;SDS011;64899;42.660;23.268;2024-03-08T04:22:39;1.40;;;1.30;;
29788;SDS011;64899;42.660;23.268;2024-03-08T04:25:05;1.83;;;1.60;;
29788;SDS011;64899;42.660;23.268;2024-03-08T04:27:35;1.73;;;1.40;;
29788;SDS011;64899;42.660;23.268;2024-03-08T04:30:01;2.22;;;1.48;;
29788;SDS011;64899;42.660;23.268;2024-03-08T04:32:27;2.70;;;1.77;;
29788;SDS011;64899;42.660;23.268;2024-03-08T04:34:54;2.10;;;1.80;;
29788;SDS011;64899;42.660;23.268;2024-03-08T04:37:19;3.00;;;1.60;;
29788;SDS011;64899;42.660;23.268;2024-03-08T04:39:48;1.85;;;1.55;;
29788;SDS011;64899;42.660;23.268;2024-03-08T04:42:13;2.17;;;1.63;;
29788;SDS011;64899;42.660;23.268;2024-03-08T04:44:39;1.98;;;1.48;;
29788;SDS011;64899;42.660;23.268;2024-03-08T04:47:04;2.30;;;1.67;;
29788;SDS011;64899;42.660;23.268;2024-03-08T04:49:33;3.22;;;1.85;;
29788;SDS011;64899;42.660;23.268;2024-03-08T04:52:04;3.40;;;2.03;;
29788;SDS011;64899;42.660;23.268;2024-03-08T04:54:30;2.80;;;2.03;;
29788;SDS011;64899;42.660;23.268;2024-03-08T04:56:56;4.90;;;2.58;;
29788;SDS011;64899;42.660;23.268;2024-03-08T04:59:21;6.63;;;2.70;;
29788;SDS011;64899;42.660;23.268;2024-03-08T05:01:47;4.50;;;2.83;;
29788;SDS011;64899;42.660;23.268;2024-03-08T05:04:13;3.63;;;2.60;;
29788;SDS011;64899;42.660;23.268;2024-03-08T05:06:38;4.45;;;2.63;;
29788;SDS011;64899;42.660;23.268;2024-03-08T05:09:04;5.15;;;2.60;;
29788;SDS011;64899;42.660;23.268;2024-03-08T05:11:41;4.55;;;2.70;;
29788;SDS011;64899;42.660;23.268;2024-03-08T05:14:08;3.50;;;2.67;;
29788;SDS011;64899;42.660;23.268;2024-03-08T05:16:33;3.88;;;2.72;;
29788;SDS011;64899;42.660;23.268;2024-03-08T05:18:59;5.15;;;2.72;;
29788;SDS011;64899;42.660;23.268;2024-03-08T05:21:24;4.03;;;2.83;;
29788;SDS011;64899;42.660;23.268;2024-03-08T05:23:50;3.97;;;3.05;;
29788;SDS011;64899;42.660;23.268;2024-03-08T05:26:16;4.53;;;3.20;;
29788;SDS011;64899;42.660;23.268;2024-03-08T05:28:41;4.45;;;3.40;;
29788;SDS011;64899;42.660;23.268;2024-03-08T05:31:07;4.38;;;3.97;;
29788;SDS011;64899;42.660;23.268;2024-03-08T05:33:33;5.05;;;3.50;;
29788;SDS011;64899;42.660;23.268;2024-03-08T05:35:59;5.30;;;3.55;;
29788;SDS011;64899;42.660;23.268;2024-03-08T05:38:27;5.63;;;3.95;;
29788;SDS011;64899;42.660;23.268;2024-03-08T05:40:53;7.03;;;3.88;;
29788;SDS011;64899;42.660;23.268;2024-03-08T05:43:19;7.90;;;4.82;;
29788;SDS011;64899;42.660;23.268;2024-03-08T05:45:45;6.40;;;4.03;;
29788;SDS011;64899;42.660;23.268;2024-03-08T05:48:13;5.93;;;3.67;;
29788;SDS011;64899;42.660;23.268;2024-03-08T05:50:38;8.02;;;4.53;;
29788;SDS011;64899;42.660;23.268;2024-03-08T05:53:04;6.40;;;4.50;;
29788;SDS011;64899;42.660;23.268;2024-03-08T05:55:32;6.75;;;4.40;;
29788;SDS011;64899;42.660;23.268;2024-03-08T05:58:01;6.85;;;4.82;;
29788;SDS011;64899;42.660;23.268;2024-03-08T06:00:26;7.40;;;5.10;;
29788;SDS011;64899;42.660;23.268;2024-03-08T06:02:52;5.93;;;4.55;;
29788;SDS011;64899;42.660;23.268;2024-03-08T06:05:17;6.68;;;5.32;;
29788;SDS011;64899;42.660;23.268;2024-03-08T06:07:43;7.75;;;5.47;;
29788;SDS011;64899;42.660;23.268;2024-03-08T06:10:09;9.02;;;5.60;;
29788;SDS011;64899;42.660;23.268;2024-03-08T06:12:35;7.88;;;5.10;;
29788;SDS011;64899;42.660;23.268;2024-03-08T06:15:05;9.00;;;5.65;;
29788;SDS011;64899;42.660;23.268;2024-03-08T06:17:31;7.65;;;5.85;;
29788;SDS011;64899;42.660;23.268;2024-03-08T06:19:56;9.38;;;5.68;;
29788;SDS011;64899;42.660;23.268;2024-03-08T06:22:22;8.93;;;5.82;;
29788;SDS011;64899;42.660;23.268;2024-03-08T06:24:47;9.27;;;6.05;;
29788;SDS011;64899;42.660;23.268;2024-03-08T06:27:12;8.10;;;5.57;;
29788;SDS011;64899;42.660;23.268;2024-03-08T06:29:39;11.30;;;6.10;;
29788;SDS011;64899;42.660;23.268;2024-03-08T06:32:04;10.27;;;5.75;;
29788;SDS011;64899;42.660;23.268;2024-03-08T06:34:32;9.02;;;6.22;;
29788;SDS011;64899;42.660;23.268;2024-03-08T06:36:59;8.85;;;5.97;;
29788;SDS011;64899;42.660;23.268;2024-03-08T06:39:26;11.57;;;6.40;;
29788;SDS011;64899;42.660;23.268;2024-03-08T06:41:53;8.63;;;6.05;;
29788;SDS011;64899;42.660;23.268;2024-03-08T06:44:19;9.15;;;6.20;;
29788;SDS011;64899;42.660;23.268;2024-03-08T06:46:46;11.25;;;6.53;;
29788;SDS011;64899;42.660;23.268;2024-03-08T06:49:13;11.57;;;7.13;;
29788;SDS011;64899;42.660;23.268;2024-03-08T06:51:38;13.63;;;7.20;;
29788;SDS011;64899;42.660;23.268;2024-03-08T06:54:06;12.68;;;7.70;;
29788;SDS011;64899;42.660;23.268;2024-03-08T06:56:33;10.07;;;7.50;;
29788;SDS011;64899;42.660;23.268;2024-03-08T06:58:59;11.27;;;6.88;;
29788;SDS011;64899;42.660;23.268;2024-03-08T07:01:25;15.02;;;7.22;;
29788;SDS011;64899;42.660;23.268;2024-03-08T07:03:50;14.43;;;7.63;;
29788;SDS011;64899;42.660;23.268;2024-03-08T07:06:17;12.93;;;7.95;;
29788;SDS011;64899;42.660;23.268;2024-03-08T07:08:44;10.70;;;6.93;;
29788;SDS011;64899;42.660;23.268;2024-03-08T07:11:11;10.07;;;6.65;;
29788;SDS011;64899;42.660;23.268;2024-03-08T07:13:37;13.45;;;7.70;;
29788;SDS011;64899;42.660;23.268;2024-03-08T07:16:04;11.80;;;7.30;;
29788;SDS011;64899;42.660;23.268;2024-03-08T07:18:30;12.38;;;7.50;;
29788;SDS011;64899;42.660;23.268;2024-03-08T07:20:56;11.60;;;7.47;;
29788;SDS011;64899;42.660;23.268;2024-03-08T07:23:22;13.65;;;7.10;;
29788;SDS011;64899;42.660;23.268;2024-03-08T07:26:06;12.02;;;7.22;;
29788;SDS011;64899;42.660;23.268;2024-03-08T07:28:31;10.65;;;7.40;;
29788;SDS011;64899;42.660;23.268;2024-03-08T07:30:57;13.30;;;6.88;;
29788;SDS011;64899;42.660;23.268;2024-03-08T07:33:42;10.50;;;6.15;;
29788;SDS011;64899;42.660;23.268;2024-03-08T07:36:07;9.55;;;5.68;;
29788;SDS011;64899;42.660;23.268;2024-03-08T07:38:33;9.02;;;5.60;;
29788;SDS011;64899;42.660;23.268;2024-03-08T07:40:59;8.25;;;5.60;;
29788;SDS011;64899;42.660;23.268;2024-03-08T07:43:25;7.82;;;5.40;;
29788;SDS011;64899;42.660;23.268;2024-03-08T07:45:51;8.98;;;5.30;;
29788;SDS011;64899;42.660;23.268;2024-03-08T07:48:18;8.75;;;5.47;;
29788;SDS011;64899;42.660;23.268;2024-03-08T07:50:43;8.73;;;5.32;;
29788;SDS011;64899;42.660;23.268;2024-03-08T07:53:17;10.55;;;5.30;;
29788;SDS011;64899;42.660;23.268;2024-03-08T07:55:43;8.02;;;5.63;;
29788;SDS011;64899;42.660;23.268;2024-03-08T07:58:09;8.55;;;6.20;;
29788;SDS011;64899;42.660;23.268;2024-03-08T08:00:36;10.88;;;5.85;;
29788;SDS011;64899;42.660;23.268;2024-03-08T08:03:01;11.82;;;6.20;;
29788;SDS011;64899;42.660;23.268;2024-03-08T08:05:27;11.65;;;5.93;;
29788;SDS011;64899;42.660;23.268;2024-03-08T08:07:53;9.80;;;6.50;;
29788;SDS011;64899;42.660;23.268;2024-03-08T08:10:18;11.70;;;6.25;;
29788;SDS011;64899;42.660;23.268;2024-03-08T08:12:49;10.90;;;5.95;;
29788;SDS011;64899;42.660;23.268;2024-03-08T08:15:15;10.10;;;5.72;;
29788;SDS011;64899;42.660;23.268;2024-03-08T08:17:41;9.50;;;6.00;;
29788;SDS011;64899;42.660;23.268;2024-03-08T08:20:07;9.57;;;5.55;;
29788;SDS011;64899;42.660;23.268;2024-03-08T08:22:34;10.93;;;7.20;;
29788;SDS011;64899;42.660;23.268;2024-03-08T08:24:59;9.02;;;6.22;;
29788;SDS011;64899;42.660;23.268;2024-03-08T08:27:25;9.93;;;6.60;;
29788;SDS011;64899;42.660;23.268;2024-03-08T08:29:51;9.23;;;6.28;;
29788;SDS011;64899;42.660;23.268;2024-03-08T08:32:16;15.43;;;6.50;;
29788;SDS011;64899;42.660;23.268;2024-03-08T08:34:43;9.68;;;5.78;;
29788;SDS011;64899;42.660;23.268;2024-03-08T08:37:09;13.85;;;6.70;;
29788;SDS011;64899;42.660;23.268;2024-03-08T08:39:34;8.32;;;5.97;;
29788;SDS011;64899;42.660;23.268;2024-03-08T08:42:00;9.80;;;5.75;;
29788;SDS011;64899;42.660;23.268;2024-03-08T08:44:28;10.13;;;6.47;;
29788;SDS011;64899;42.660;23.268;2024-03-08T08:46:53;9.43;;;5.55;;
29788;SDS011;64899;42.660;23.268;2024-03-08T08:49:19;12.27;;;5.50;;
29788;SDS011;64899;42.660;23.268;2024-03-08T08:51:48;8.38;;;6.13;;
29788;SDS011;64899;42.660;23.268;2024-03-08T08:54:14;7.95;;;5.90;;
29788;SDS011;64899;42.660;23.268;2024-03-08T08:56:42;10.18;;;6.22;;
29788;SDS011;64899;42.660;23.268;2024-03-08T08:59:09;7.55;;;5.80;;
29788;SDS011;64899;42.660;23.268;2024-03-08T09:01:34;8.48;;;6.05;;
29788;SDS011;64899;42.660;23.268;2024-03-08T09:04:00;10.48;;;6.55;;
29788;SDS011;64899;42.660;23.268;2024-03-08T09:06:25;13.35;;;6.57;;
29788;SDS011;64899;42.660;23.268;2024-03-08T09:08:51;12.18;;;6.57;;
29788;SDS011;64899;42.660;23.268;2024-03-08T09:11:16;8.85;;;6.10;;
29788;SDS011;64899;42.660;23.268;2024-03-08T09:13:44;6.72;;;5.15;;
29788;SDS011;64899;42.660;23.268;2024-03-08T09:16:11;8.27;;;4.72;;
29788;SDS011;64899;42.660;23.268;2024-03-08T09:18:36;7.97;;;4.05;;
29788;SDS011;64899;42.660;23.268;2024-03-08T09:21:01;8.05;;;4.50;;
29788;SDS011;64899;42.660;23.268;2024-03-08T09:23:28;7.05;;;4.30;;
29788;SDS011;64899;42.660;23.268;2024-03-08T09:25:58;6.70;;;4.03;;
29788;SDS011;64899;42.660;23.268;2024-03-08T09:28:23;6.88;;;3.75;;
29788;SDS011;64899;42.660;23.268;2024-03-08T09:30:50;4.70;;;3.80;;
29788;SDS011;64899;42.660;23.268;2024-03-08T09:33:15;5.57;;;4.00;;
29788;SDS011;64899;42.660;23.268;2024-03-08T09:35:44;5.20;;;3.78;;
29788;SDS011;64899;42.660;23.268;2024-03-08T09:38:13;5.97;;;4.95;;
29788;SDS011;64899;42.660;23.268;2024-03-08T09:40:42;6.38;;;4.38;;
29788;SDS011;64899;42.660;23.268;2024-03-08T09:43:08;5.78;;;4.20;;
29788;SDS011;64899;42.660;23.268;2024-03-08T09:45:36;7.68;;;4.82;;
29788;SDS011;64899;42.660;23.268;2024-03-08T09:48:05;6.45;;;4.75;;
29788;SDS011;64899;42.660;23.268;2024-03-08T09:50:34;11.02;;;5.45;;
29788;SDS011;64899;42.660;23.268;2024-03-08T09:52:59;4.50;;;3.38;;
29788;SDS011;64899;42.660;23.268;2024-03-08T09:55:25;4.72;;;3.50;;
29788;SDS011;64899;42.660;23.268;2024-03-08T09:57:53;5.35;;;3.70;;
29788;SDS011;64899;42.660;23.268;2024-03-08T10:00:38;5.25;;;2.90;;
29788;SDS011;64899;42.660;23.268;2024-03-08T10:03:03;4.28;;;3.30;;
29788;SDS011;64899;42.660;23.268;2024-03-08T10:05:30;5.18;;;3.72;;
29788;SDS011;64899;42.660;23.268;2024-03-08T10:07:58;5.78;;;2.97;;
29788;SDS011;64899;42.660;23.268;2024-03-08T10:10:23;6.05;;;3.13;;
29788;SDS011;64899;42.660;23.268;2024-03-08T10:12:49;3.58;;;2.50;;
29788;SDS011;64899;42.660;23.268;2024-03-08T10:15:15;4.88;;;3.80;;
29788;SDS011;64899;42.660;23.268;2024-03-08T10:17:41;6.95;;;4.03;;
29788;SDS011;64899;42.660;23.268;2024-03-08T10:20:17;9.23;;;3.25;;
29788;SDS011;64899;42.660;23.268;2024-03-08T10:22:44;4.00;;;3.00;;
29788;SDS011;64899;42.660;23.268;2024-03-08T10:25:13;4.95;;;2.75;;
29788;SDS011;64899;42.660;23.268;2024-03-08T10:27:39;6.18;;;2.65;;
29788;SDS011;64899;42.660;23.268;2024-03-08T10:30:06;5.35;;;3.13;;
29788;SDS011;64899;42.660;23.268;2024-03-08T10:32:44;6.13;;;3.63;;
29788;SDS011;64899;42.660;23.268;2024-03-08T10:35:10;4.40;;;3.33;;
29788;SDS011;64899;42.660;23.268;2024-03-08T10:37:40;4.75;;;3.40;;
29788;SDS011;64899;42.660;23.268;2024-03-08T10:42:41;7.80;;;3.25;;
29788;SDS011;64899;42.660;23.268;2024-03-08T10:45:19;3.58;;;2.65;;
29788;SDS011;64899;42.660;23.268;2024-03-08T10:47:47;3.55;;;2.35;;
29788;SDS011;64899;42.660;23.268;2024-03-08T10:50:18;3.15;;;2.60;;
29788;SDS011;64899;42.660;23.268;2024-03-08T10:52:50;4.93;;;2.77;;
29788;SDS011;64899;42.660;23.268;2024-03-08T10:55:16;4.85;;;2.92;;
29788;SDS011;64899;42.660;23.268;2024-03-08T10:57:42;5.78;;;2.90;;
29788;SDS011;64899;42.660;23.268;2024-03-08T11:00:08;3.17;;;2.58;;
29788;SDS011;64899;42.660;23.268;2024-03-08T11:02:36;5.93;;;2.85;;
29788;SDS011;64899;42.660;23.268;2024-03-08T11:05:04;4.80;;;2.10;;
29788;SDS011;64899;42.660;23.268;2024-03-08T11:07:34;4.70;;;2.80;;
29788;SDS011;64899;42.660;23.268;2024-03-08T11:10:02;4.15;;;2.45;;
29788;SDS011;64899;42.660;23.268;2024-03-08T11:12:36;5.25;;;2.45;;
29788;SDS011;64899;42.660;23.268;2024-03-08T11:15:02;3.40;;;1.90;;
29788;SDS011;64899;42.660;23.268;2024-03-08T11:20:14;3.60;;;2.05;;
29788;SDS011;64899;42.660;23.268;2024-03-08T11:25:31;2.65;;;1.85;;
29788;SDS011;64899;42.660;23.268;2024-03-08T11:28:11;2.33;;;1.98;;
29788;SDS011;64899;42.660;23.268;2024-03-08T11:30:44;3.05;;;2.00;;
29788;SDS011;64899;42.660;23.268;2024-03-08T11:33:28;2.70;;;2.08;;
29788;SDS011;64899;42.660;23.268;2024-03-08T11:38:42;4.32;;;2.15;;
29788;SDS011;64899;42.660;23.268;2024-03-08T11:41:09;4.40;;;2.35;;
29788;SDS011;64899;42.660;23.268;2024-03-08T11:43:37;3.30;;;1.90;;
29788;SDS011;64899;42.660;23.268;2024-03-08T11:46:11;3.22;;;2.00;;
29788;SDS011;64899;42.660;23.268;2024-03-08T11:48:39;2.97;;;1.90;;
29788;SDS011;64899;42.660;23.268;2024-03-08T11:51:09;3.30;;;1.85;;
29788;SDS011;64899;42.660;23.268;2024-03-08T11:53:36;3.00;;;2.10;;
29788;SDS011;64899;42.660;23.268;2024-03-08T11:56:08;5.18;;;2.22;;
29788;SDS011;64899;42.660;23.268;2024-03-08T11:58:34;2.97;;;1.87;;
29788;SDS011;64899;42.660;23.268;2024-03-08T12:01:02;2.38;;;1.92;;
29788;SDS011;64899;42.660;23.268;2024-03-08T12:03:29;3.67;;;1.80;;
29788;SDS011;64899;42.660;23.268;2024-03-08T12:05:58;3.42;;;2.10;;
29788;SDS011;64899;42.660;23.268;2024-03-08T12:08:29;3.30;;;1.73;;
29788;SDS011;64899;42.660;23.268;2024-03-08T12:10:56;1.92;;;1.75;;
29788;SDS011;64899;42.660;23.268;2024-03-08T12:13:31;2.53;;;1.85;;
29788;SDS011;64899;42.660;23.268;2024-03-08T12:15:58;3.05;;;1.90;;
29788;SDS011;64899;42.660;23.268;2024-03-08T12:18:25;4.30;;;2.20;;
29788;SDS011;64899;42.660;23.268;2024-03-08T12:21:07;3.97;;;1.90;;
29788;SDS011;64899;42.660;23.268;2024-03-08T12:23:34;2.53;;;1.88;;
29788;SDS011;64899;42.660;23.268;2024-03-08T12:26:16;3.67;;;1.85;;
29788;SDS011;64899;42.660;23.268;2024-03-08T12:28:43;1.52;;;1.40;;
29788;SDS011;64899;42.660;23.268;2024-03-08T12:31:18;1.60;;;1.45;;
29788;SDS011;64899;42.660;23.268;2024-03-08T12:33:51;3.92;;;1.60;;
29788;SDS011;64899;42.660;23.268;2024-03-08T12:36:18;3.05;;;1.70;;
29788;SDS011;64899;42.660;23.268;2024-03-08T12:38:48;2.67;;;1.92;;
29788;SDS011;64899;42.660;23.268;2024-03-08T12:41:14;3.08;;;1.95;;
29788;SDS011;64899;42.660;23.268;2024-03-08T12:43:40;5.70;;;1.80;;
29788;SDS011;64899;42.660;23.268;2024-03-08T12:46:06;3.80;;;2.25;;
29788;SDS011;64899;42.660;23.268;2024-03-08T12:48:34;2.92;;;1.98;;
29788;SDS011;64899;42.660;23.268;2024-03-08T12:51:00;2.83;;;1.73;;
29788;SDS011;64899;42.660;23.268;2024-03-08T12:53:26;3.53;;;1.70;;
29788;SDS011;64899;42.660;23.268;2024-03-08T12:55:53;5.93;;;1.90;;
29788;SDS011;64899;42.660;23.268;2024-03-08T12:58:21;3.00;;;1.63;;
29788;SDS011;64899;42.660;23.268;2024-03-08T13:00:46;2.13;;;1.80;;
29788;SDS011;64899;42.660;23.268;2024-03-08T13:03:12;3.78;;;1.70;;
29788;SDS011;64899;42.660;23.268;2024-03-08T13:05:37;3.30;;;1.77;;
29788;SDS011;64899;42.660;23.268;2024-03-08T13:08:05;2.78;;;1.67;;
29788;SDS011;64899;42.660;23.268;2024-03-08T13:10:37;3.38;;;1.85;;
29788;SDS011;64899;42.660;23.268;2024-03-08T13:13:03;3.55;;;1.70;;
29788;SDS011;64899;42.660;23.268;2024-03-08T13:15:29;1.90;;;1.67;;
29788;SDS011;64899;42.660;23.268;2024-03-08T13:17:55;1.73;;;1.60;;
29788;SDS011;64899;42.660;23.268;2024-03-08T13:20:23;4.80;;;2.13;;
29788;SDS011;64899;42.660;23.268;2024-03-08T13:22:48;4.57;;;1.80;;
29788;SDS011;64899;42.660;23.268;2024-03-08T13:25:13;3.45;;;1.70;;
29788;SDS011;64899;42.660;23.268;2024-03-08T13:27:42;1.80;;;1.70;;
29788;SDS011;64899;42.660;23.268;2024-03-08T13:30:08;2.30;;;2.03;;
29788;SDS011;64899;42.660;23.268;2024-03-08T13:32:38;4.60;;;1.85;;
29788;SDS011;64899;42.660;23.268;2024-03-08T13:35:04;2.10;;;1.90;;
29788;SDS011;64899;42.660;23.268;2024-03-08T13:37:37;2.13;;;1.63;;
29788;SDS011;64899;42.660;23.268;2024-03-08T13:40:05;4.07;;;1.67;;
29788;SDS011;64899;42.660;23.268;2024-03-08T13:42:35;2.20;;;1.80;;
29788;SDS011;64899;42.660;23.268;2024-03-08T13:45:04;3.38;;;1.50;;
29788;SDS011;64899;42.660;23.268;2024-03-08T13:47:33;4.95;;;2.60;;
29788;SDS011;64899;42.660;23.268;2024-03-08T13:49:59;2.33;;;2.10;;
29788;SDS011;64899;42.660;23.268;2024-03-08T13:52:25;3.38;;;1.92;;
29788;SDS011;64899;42.660;23.268;2024-03-08T13:54:54;5.20;;;2.03;;
29788;SDS011;64899;42.660;23.268;2024-03-08T13:57:19;2.95;;;1.98;;
29788;SDS011;64899;42.660;23.268;2024-03-08T13:59:45;2.08;;;1.88;;
29788;SDS011;64899;42.660;23.268;2024-03-08T14:02:10;4.15;;;2.05;;
29788;SDS011;64899;42.660;23.268;2024-03-08T14:04:38;3.40;;;2.00;;
29788;SDS011;64899;42.660;23.268;2024-03-08T14:07:06;3.42;;;2.08;;
29788;SDS011;64899;42.660;23.268;2024-03-08T14:09:33;3.20;;;2.20;;
29788;SDS011;64899;42.660;23.268;2024-03-08T14:12:02;3.67;;;2.05;;
29788;SDS011;64899;42.660;23.268;2024-03-08T14:14:31;3.58;;;1.83;;
29788;SDS011;64899;42.660;23.268;2024-03-08T14:16:56;2.65;;;1.92;;
29788;SDS011;64899;42.660;23.268;2024-03-08T14:19:23;2.80;;;1.92;;
29788;SDS011;64899;42.660;23.268;2024-03-08T14:21:48;2.55;;;2.08;;
29788;SDS011;64899;42.660;23.268;2024-03-08T14:24:14;1.90;;;1.52;;
29788;SDS011;64899;42.660;23.268;2024-03-08T14:26:41;3.03;;;2.10;;
29788;SDS011;64899;42.660;23.268;2024-03-08T14:29:07;2.80;;;1.85;;
29788;SDS011;64899;42.660;23.268;2024-03-08T14:31:34;4.25;;;1.90;;
29788;SDS011;64899;42.660;23.268;2024-03-08T14:34:01;3.60;;;2.20;;
29788;SDS011;64899;42.660;23.268;2024-03-08T14:36:28;5.55;;;2.60;;
29788;SDS011;64899;42.660;23.268;2024-03-08T14:38:54;4.88;;;2.53;;
29788;SDS011;64899;42.660;23.268;2024-03-08T14:41:19;4.85;;;2.13;;
29788;SDS011;64899;42.660;23.268;2024-03-08T14:43:45;3.28;;;2.30;;
29788;SDS011;64899;42.660;23.268;2024-03-08T14:46:11;4.72;;;2.72;;